createdAt,value
2023-05-17T00:02:22.598Z,89.17
2023-05-17T00:07:25.515Z,88.35
2023-05-17T00:12:28.482Z,88.28
2023-05-17T00:17:40.316Z,87.79
2023-05-17T00:22:43.689Z,87.14
2023-05-17T00:27:46.502Z,87.12
2023-05-17T00:32:49.586Z,85.33
2023-05-17T00:37:54.461Z,84.75
2023-05-17T00:42:57.395Z,84.05
2023-05-17T00:48:00.288Z,83.57
2023-05-17T00:53:03.481Z,83.70
2023-05-17T00:58:06.606Z,81.86
2023-05-17T01:03:09.564Z,79.40
2023-05-17T01:08:12.549Z,79.47
2023-05-17T01:14:06.132Z,78.35
2023-05-17T01:19:28.233Z,77.94
2023-05-17T01:24:57.273Z,76.94
2023-05-17T01:30:01.945Z,74.75
2023-05-17T01:35:08.327Z,76.63
2023-05-17T01:40:11.982Z,74.33
2023-05-17T01:45:29.319Z,73.54
2023-05-17T01:50:33.537Z,73.62
2023-05-17T01:55:44.165Z,75.63
2023-05-17T02:00:47.645Z,74.67
2023-05-17T02:05:50.512Z,75.14
2023-05-17T02:10:53.590Z,74.52
2023-05-17T02:16:01.400Z,74.25
2023-05-17T02:21:05.032Z,72.05
2023-05-17T02:26:07.990Z,69.58
2023-05-17T02:31:11.254Z,67.40
2023-05-17T02:36:14.358Z,65.58
2023-05-17T02:41:17.243Z,65.09
2023-05-17T02:46:20.372Z,64.56
2023-05-17T02:51:23.301Z,63.70
2023-05-17T02:56:26.433Z,63.45
2023-05-17T03:01:30.422Z,63.07
2023-05-17T03:06:35.064Z,61.86
2023-05-17T03:11:38.508Z,59.92
2023-05-17T03:16:46.196Z,60.40
2023-05-17T03:21:49.926Z,60.47
2023-05-17T03:26:54.002Z,59.90
2023-05-17T03:31:58.486Z,57.93
2023-05-17T03:37:01.968Z,57.48
2023-05-17T03:42:06.664Z,56.82
2023-05-17T03:47:10.417Z,56.64
2023-05-17T03:52:13.598Z,56.89
2023-05-17T03:57:16.990Z,56.85
2023-05-17T04:02:21.024Z,58.24
2023-05-17T04:07:24.377Z,55.92
2023-05-17T04:12:27.353Z,56.37
2023-05-17T04:17:30.555Z,56.20
2023-05-17T04:22:33.997Z,56.13
2023-05-17T04:27:37.007Z,57.74
2023-05-17T04:32:43.669Z,58.54
2023-05-17T04:37:46.721Z,58.56
2023-05-17T04:42:57.869Z,57.35
2023-05-17T04:48:02.569Z,56.96
2023-05-17T04:53:06.632Z,56.63
2023-05-17T04:58:12.540Z,56.98
2023-05-17T05:03:15.750Z,59.04
2023-05-17T05:08:18.908Z,60.52
2023-05-17T05:13:23.440Z,57.58
2023-05-17T05:18:27.968Z,57.19
2023-05-17T05:23:31.202Z,55.57
2023-05-17T05:28:34.460Z,55.81
2023-05-17T05:33:38.607Z,55.18
2023-05-17T05:38:41.720Z,52.93
2023-05-17T05:43:44.675Z,52.51
2023-05-17T05:48:47.664Z,51.95
2023-05-17T05:53:51.108Z,50.39
2023-05-17T05:58:56.917Z,54.16
2023-05-17T06:04:00.751Z,66.37
2023-05-17T06:09:04.468Z,72.42
2023-05-17T06:14:07.446Z,71.62
2023-05-17T06:19:10.377Z,72.10
2023-05-17T06:24:13.460Z,72.96
2023-05-17T06:29:16.630Z,73.57
2023-05-17T06:34:19.586Z,71.21
2023-05-17T06:39:22.589Z,68.85
2023-05-17T06:44:25.807Z,65.25
2023-05-17T06:49:28.735Z,61.48
2023-05-17T06:54:32.063Z,60.88
2023-05-17T06:59:34.930Z,60.06
2023-05-17T07:04:37.954Z,57.30
2023-05-17T07:09:41.783Z,58.41
2023-05-17T07:14:44.708Z,54.66
2023-05-17T07:19:51.348Z,50.29
2023-05-17T07:24:54.301Z,50.15
2023-05-17T07:29:57.258Z,48.41
2023-05-17T07:35:00.405Z,46.63
2023-05-17T07:40:04.697Z,47.95
2023-05-17T07:45:09.563Z,46.39
2023-05-17T07:50:12.769Z,48.16
2023-05-17T07:55:17.098Z,49.81
2023-05-17T08:00:20.669Z,50.90
2023-05-17T08:05:23.699Z,44.79
2023-05-17T08:10:27.888Z,47.22
2023-05-17T08:15:31.353Z,49.65
2023-05-17T08:20:34.564Z,51.50
2023-05-17T08:25:37.532Z,52.26
2023-05-17T08:30:40.509Z,50.07
2023-05-17T08:35:43.555Z,47.91
2023-05-17T08:40:54.853Z,45.55
2023-05-17T08:45:58.437Z,43.73
2023-05-17T08:51:02.000Z,42.82
2023-05-17T08:56:07.496Z,41.88
2023-05-17T09:01:10.592Z,39.84
2023-05-17T09:06:14.242Z,40.73
2023-05-17T09:11:26.240Z,38.89
2023-05-17T09:16:30.836Z,40.23
2023-05-17T09:21:34.584Z,41.06
2023-05-17T09:26:41.910Z,41.83
2023-05-17T09:31:45.296Z,42.05
2023-05-17T09:36:48.256Z,41.90
2023-05-17T09:41:57.815Z,40.09
2023-05-17T09:47:00.741Z,40.81
2023-05-17T09:52:08.557Z,40.55
2023-05-17T09:57:11.749Z,40.04
2023-05-17T10:02:28.834Z,39.13
2023-05-17T10:07:32.547Z,39.19
2023-05-17T10:12:35.859Z,39.17
2023-05-17T10:17:44.646Z,41.18
2023-05-17T10:22:48.724Z,41.26
2023-05-17T10:27:52.334Z,41.38
2023-05-17T10:32:56.146Z,40.62
2023-05-17T10:37:59.210Z,40.18
2023-05-17T10:43:02.346Z,41.17
2023-05-17T10:48:08.750Z,41.46
2023-05-17T10:53:11.921Z,41.34
2023-05-17T10:58:17.605Z,41.18
2023-05-17T11:03:23.333Z,42.36
2023-05-17T11:08:26.232Z,42.75
2023-05-17T11:13:29.309Z,41.70
2023-05-17T11:19:08.469Z,42.60
2023-05-17T11:24:14.826Z,42.37
2023-05-17T11:29:18.285Z,41.48
2023-05-17T11:34:25.623Z,42.00
2023-05-17T11:39:28.585Z,42.12
2023-05-17T11:44:32.888Z,41.80
2023-05-17T11:49:38.858Z,42.18
2023-05-17T11:54:43.387Z,42.41
2023-05-17T11:59:46.758Z,43.49
2023-05-17T12:04:49.743Z,44.68
2023-05-17T12:09:53.347Z,45.48
2023-05-17T12:14:56.449Z,45.02
2023-05-17T12:20:08.453Z,44.06
2023-05-17T12:25:20.363Z,44.15
2023-05-17T12:30:24.343Z,42.51
2023-05-17T12:35:27.320Z,41.81
2023-05-17T12:40:30.494Z,42.91
2023-05-17T12:45:34.636Z,42.91
2023-05-17T12:50:37.526Z,43.44
2023-05-17T12:55:40.426Z,43.53
2023-05-17T13:00:57.713Z,39.72
2023-05-17T13:06:05.103Z,36.33
2023-05-17T13:11:16.391Z,35.17
2023-05-17T13:16:30.120Z,34.61
2023-05-17T13:21:33.134Z,35.22
2023-05-17T13:26:36.093Z,35.79
2023-05-17T13:31:38.950Z,34.98
2023-05-17T13:36:42.707Z,36.80
2023-05-17T13:41:45.691Z,39.87
2023-05-17T13:46:48.653Z,42.38
2023-05-17T13:51:51.533Z,43.93
2023-05-17T13:56:55.895Z,44.79
2023-05-17T14:01:58.929Z,44.75
2023-05-17T14:07:03.806Z,43.07
2023-05-17T14:12:07.122Z,42.71
2023-05-17T14:17:10.157Z,44.29
2023-05-17T14:22:14.202Z,46.62
2023-05-17T14:27:17.303Z,47.45
2023-05-17T14:32:20.277Z,48.76
2023-05-17T14:37:23.269Z,49.48
2023-05-17T14:42:27.787Z,50.38
2023-05-17T14:47:30.721Z,51.48
2023-05-17T14:52:35.215Z,51.32
2023-05-17T14:57:40.444Z,51.74
2023-05-17T15:02:43.433Z,51.88
2023-05-17T15:07:47.938Z,52.00
2023-05-17T15:12:51.007Z,52.32
2023-05-17T15:17:54.666Z,52.54
2023-05-17T15:22:57.607Z,52.64
2023-05-17T15:28:00.587Z,53.75
2023-05-17T15:33:04.011Z,53.28
2023-05-17T15:38:07.240Z,53.81
2023-05-17T15:43:10.268Z,54.15
2023-05-17T15:48:13.505Z,53.98
2023-05-17T15:53:16.462Z,54.47
2023-05-17T15:58:19.888Z,54.91
2023-05-17T16:03:22.890Z,54.71
2023-05-17T16:08:26.163Z,54.66
2023-05-17T16:13:29.160Z,54.81
2023-05-17T16:18:33.521Z,55.76
2023-05-17T16:23:36.528Z,55.41
2023-05-17T16:28:39.721Z,55.66
2023-05-17T16:33:43.102Z,56.35
2023-05-17T16:38:46.345Z,56.18
2023-05-17T16:43:49.272Z,57.03
2023-05-17T16:48:55.892Z,57.38
2023-05-17T16:53:58.840Z,56.78
2023-05-17T16:59:01.871Z,57.99
2023-05-17T17:04:04.966Z,57.96
2023-05-17T17:09:09.483Z,58.11
2023-05-17T17:14:13.655Z,58.20
2023-05-17T17:19:17.093Z,58.75
2023-05-17T17:24:20.051Z,58.22
2023-05-17T17:29:22.977Z,58.46
2023-05-17T17:34:25.985Z,59.00
2023-05-17T17:39:28.851Z,59.17
2023-05-17T17:44:31.755Z,59.50
2023-05-17T17:49:36.468Z,59.68
2023-05-17T17:54:39.588Z,60.18
2023-05-17T17:59:42.511Z,60.22
2023-05-17T18:04:46.309Z,60.73
2023-05-17T18:09:49.369Z,60.91
2023-05-17T18:14:52.576Z,60.85
2023-05-17T18:19:55.518Z,60.70
2023-05-17T18:24:58.625Z,60.93
2023-05-17T18:30:01.868Z,60.86
2023-05-17T18:35:08.078Z,61.86
2023-05-17T18:40:11.670Z,61.47
2023-05-17T18:45:14.593Z,61.54
2023-05-17T18:50:17.554Z,61.52
2023-05-17T18:55:20.509Z,61.61
2023-05-17T19:00:23.447Z,61.71
2023-05-17T19:05:26.332Z,62.03
2023-05-17T19:10:29.435Z,62.37
2023-05-17T19:15:33.049Z,62.64
2023-05-17T19:20:36.077Z,62.91
2023-05-17T19:25:39.027Z,63.19
2023-05-17T19:30:41.944Z,63.38
2023-05-17T19:35:45.326Z,63.33
2023-05-17T19:40:48.234Z,63.64
2023-05-17T19:45:51.289Z,63.67
2023-05-17T19:50:56.665Z,64.81
2023-05-17T19:56:01.426Z,64.42
2023-05-17T20:01:04.494Z,64.29
2023-05-17T20:06:07.496Z,65.05
2023-05-17T20:11:11.309Z,65.33
2023-05-17T20:16:14.442Z,65.36
2023-05-17T20:21:20.579Z,65.91
2023-05-17T20:26:27.456Z,65.67
2023-05-17T20:31:30.472Z,66.61
2023-05-17T20:36:33.426Z,66.62
2023-05-17T20:41:36.341Z,66.50
2023-05-17T20:46:39.312Z,67.09
2023-05-17T20:51:42.627Z,67.14
2023-05-17T20:56:45.546Z,67.61
2023-05-17T21:01:48.643Z,67.63
2023-05-17T21:06:52.722Z,67.53
2023-05-17T21:11:55.584Z,68.54
2023-05-17T21:16:58.495Z,68.58
2023-05-17T21:22:01.420Z,69.26
2023-05-17T21:27:04.524Z,69.17
2023-05-17T21:32:07.776Z,68.90
2023-05-17T21:37:10.636Z,70.19
2023-05-17T21:42:13.654Z,70.26
2023-05-17T21:47:16.625Z,70.33
2023-05-17T21:52:19.492Z,70.64
2023-05-17T21:57:22.472Z,71.17
2023-05-17T22:02:25.365Z,71.08
2023-05-17T22:07:28.289Z,70.98
2023-05-17T22:12:31.164Z,71.03
2023-05-17T22:17:48.051Z,70.80
2023-05-17T22:22:55.473Z,71.04
2023-05-17T22:27:58.576Z,70.57
2023-05-17T22:33:01.805Z,70.28
2023-05-17T22:38:05.229Z,69.90
2023-05-17T22:43:08.760Z,69.69
2023-05-17T22:48:14.772Z,69.71
2023-05-17T22:53:18.894Z,69.31
2023-05-17T22:58:23.853Z,69.13
2023-05-17T23:03:26.827Z,68.96
2023-05-17T23:08:30.686Z,68.67
2023-05-17T23:13:33.670Z,68.86
2023-05-17T23:18:36.716Z,68.48
2023-05-17T23:23:41.053Z,67.82
2023-05-17T23:28:44.525Z,66.86
2023-05-17T23:33:47.518Z,65.66
2023-05-17T23:38:50.462Z,65.47
2023-05-17T23:43:53.553Z,64.20
2023-05-17T23:48:57.765Z,63.10
2023-05-17T23:54:00.972Z,62.26
2023-05-17T23:59:04.193Z,60.81
